createdAt,value
2023-08-08T00:03:30.298Z,2.83
2023-08-08T00:07:32.116Z,2.65
2023-08-08T00:11:34.372Z,2.15
2023-08-08T00:15:36.396Z,2.10
2023-08-08T00:19:38.125Z,2.62
2023-08-08T00:23:39.812Z,1.90
2023-08-08T00:27:44.785Z,5.82
2023-08-08T00:31:46.470Z,3.17
2023-08-08T00:35:48.161Z,4.32
2023-08-08T00:39:49.937Z,2.30
2023-08-08T00:43:51.655Z,2.33
2023-08-08T00:47:54.196Z,3.20
2023-08-08T00:51:56.004Z,3.42
2023-08-08T00:55:59.011Z,5.70
2023-08-08T01:00:00.708Z,4.82
2023-08-08T01:04:02.512Z,4.43
2023-08-08T01:08:06.923Z,4.72
2023-08-08T01:12:11.982Z,4.53
2023-08-08T01:16:14.438Z,5.32
2023-08-08T01:20:17.836Z,7.75
2023-08-08T01:24:23.254Z,3.30
2023-08-08T01:28:25.326Z,5.53
2023-08-08T01:32:27.093Z,3.78
2023-08-08T01:37:05.382Z,5.03
2023-08-08T01:41:08.528Z,6.07
2023-08-08T01:45:11.117Z,3.35
2023-08-08T01:49:12.773Z,5.82
2023-08-08T01:53:14.542Z,5.55
2023-08-08T01:57:16.211Z,5.55
2023-08-08T02:01:17.997Z,7.55
2023-08-08T02:05:19.859Z,6.00
2023-08-08T02:09:22.063Z,6.82
2023-08-08T02:13:24.407Z,4.20
2023-08-08T02:17:27.383Z,3.42
2023-08-08T02:21:29.210Z,5.57
2023-08-08T02:25:31.894Z,5.87
2023-08-08T02:29:33.610Z,5.40
2023-08-08T02:33:35.296Z,6.28
2023-08-08T02:37:37.069Z,4.50
2023-08-08T02:41:38.728Z,6.12
2023-08-08T02:45:40.628Z,6.05
2023-08-08T02:49:42.372Z,5.25
2023-08-08T02:53:44.134Z,7.03
2023-08-08T02:57:45.795Z,3.95
2023-08-08T03:01:48.460Z,4.37
2023-08-08T03:05:50.286Z,4.85
2023-08-08T03:09:52.071Z,4.85
2023-08-08T03:13:53.769Z,4.20
2023-08-08T03:17:56.704Z,5.22
2023-08-08T03:21:58.769Z,4.22
2023-08-08T03:26:00.998Z,5.30
2023-08-08T03:30:03.149Z,5.47
2023-08-08T03:34:05.480Z,6.05
2023-08-08T03:38:07.595Z,6.72
2023-08-08T03:42:09.617Z,4.32
2023-08-08T03:46:12.638Z,6.50
2023-08-08T03:50:14.446Z,4.85
2023-08-08T03:54:16.340Z,3.78
2023-08-08T03:58:19.010Z,3.90
2023-08-08T04:02:20.719Z,6.12
2023-08-08T04:06:22.447Z,10.52
2023-08-08T04:10:24.180Z,8.43
2023-08-08T04:14:25.955Z,10.27
2023-08-08T04:18:27.668Z,4.78
2023-08-08T04:22:29.402Z,7.68
2023-08-08T04:26:31.082Z,6.00
2023-08-08T04:30:32.828Z,11.18
2023-08-08T04:34:34.661Z,10.93
2023-08-08T04:38:36.331Z,10.25
2023-08-08T04:42:38.105Z,11.85
2023-08-08T04:46:40.058Z,11.52
2023-08-08T04:50:42.191Z,10.07
2023-08-08T04:54:45.141Z,10.82
2023-08-08T04:58:46.878Z,11.38
2023-08-08T05:02:48.648Z,13.80
2023-08-08T05:06:50.416Z,7.43
2023-08-08T05:10:52.131Z,14.15
2023-08-08T05:14:53.854Z,10.40
2023-08-08T05:18:55.632Z,8.07
2023-08-08T05:22:57.365Z,12.63
2023-08-08T05:26:59.079Z,11.48
2023-08-08T05:31:00.810Z,12.73
2023-08-08T05:35:05.233Z,11.95
2023-08-08T05:39:08.007Z,11.65
2023-08-08T05:43:09.995Z,11.48
2023-08-08T05:47:12.182Z,12.65
2023-08-08T05:51:13.942Z,13.82
2023-08-08T05:55:15.648Z,15.60
2023-08-08T05:59:17.410Z,14.23
2023-08-08T06:03:19.167Z,10.45
2023-08-08T06:07:20.965Z,15.98
2023-08-08T06:11:23.019Z,11.00
2023-08-08T06:15:24.668Z,14.80
2023-08-08T06:19:26.415Z,8.30
2023-08-08T06:23:28.145Z,16.92
2023-08-08T06:27:29.862Z,16.30
2023-08-08T06:31:31.853Z,13.85
2023-08-08T06:35:33.658Z,16.73
2023-08-08T06:39:35.971Z,11.23
2023-08-08T06:43:37.686Z,21.65
2023-08-08T06:47:39.532Z,12.43
2023-08-08T06:51:41.283Z,12.15
2023-08-08T06:55:42.934Z,11.48
2023-08-08T06:59:44.707Z,10.13
2023-08-08T07:03:47.742Z,12.50
2023-08-08T07:07:51.456Z,14.00
2023-08-08T07:11:53.292Z,12.48
2023-08-08T07:15:55.111Z,12.10
2023-08-08T07:19:57.643Z,9.95
2023-08-08T07:23:59.344Z,11.77
2023-08-08T07:28:01.028Z,11.12
2023-08-08T07:32:05.079Z,13.07
2023-08-08T07:36:06.799Z,10.07
2023-08-08T07:40:21.373Z,10.00
2023-08-08T07:44:23.108Z,10.85
2023-08-08T07:48:24.801Z,9.38
2023-08-08T07:52:26.507Z,9.77
2023-08-08T07:56:28.216Z,8.85
2023-08-08T08:00:29.933Z,9.95
2023-08-08T08:04:31.605Z,9.45
2023-08-08T08:08:33.650Z,8.52
2023-08-08T08:12:36.027Z,11.05
2023-08-08T08:16:37.976Z,8.48
2023-08-08T08:20:40.193Z,12.37
2023-08-08T08:24:41.884Z,8.90
2023-08-08T08:28:43.615Z,10.52
2023-08-08T08:32:45.696Z,7.18
2023-08-08T08:36:47.435Z,7.15
2023-08-08T08:40:49.932Z,8.52
2023-08-08T08:44:53.553Z,7.40
2023-08-08T08:48:57.556Z,9.35
2023-08-08T08:53:01.074Z,8.77
2023-08-08T08:57:02.825Z,7.90
2023-08-08T09:01:04.866Z,6.80
2023-08-08T09:05:07.201Z,6.97
2023-08-08T09:09:16.168Z,7.12
2023-08-08T09:13:18.747Z,6.40
2023-08-08T09:17:22.472Z,9.50
2023-08-08T09:21:25.678Z,11.75
2023-08-08T09:25:27.703Z,9.93
2023-08-08T09:29:29.448Z,12.48
2023-08-08T09:33:31.624Z,8.73
2023-08-08T09:37:33.340Z,8.20
2023-08-08T09:41:35.081Z,9.30
2023-08-08T09:45:38.843Z,6.50
2023-08-08T09:49:40.785Z,6.82
2023-08-08T09:53:43.606Z,8.73
2023-08-08T09:57:46.310Z,6.93
2023-08-08T10:01:48.939Z,8.13
2023-08-08T10:05:50.755Z,8.60
2023-08-08T10:09:53.173Z,7.75
2023-08-08T10:13:55.187Z,4.78
2023-08-08T10:17:58.274Z,5.05
2023-08-08T10:22:07.490Z,6.25
2023-08-08T10:26:20.357Z,5.40
2023-08-08T10:30:22.163Z,5.90
2023-08-08T10:34:38.614Z,5.75
2023-08-08T10:38:51.222Z,6.00
2023-08-08T10:42:53.358Z,5.47
2023-08-08T10:46:57.737Z,5.90
2023-08-08T10:51:01.120Z,5.75
2023-08-08T10:55:04.176Z,6.47
2023-08-08T10:59:21.912Z,4.53
2023-08-08T11:03:24.955Z,6.95
2023-08-08T11:07:29.339Z,6.12
2023-08-08T11:11:37.953Z,11.57
2023-08-08T11:15:40.386Z,8.15
2023-08-08T11:19:42.379Z,10.55
2023-08-08T11:23:47.306Z,6.00
2023-08-08T11:27:53.502Z,7.35
2023-08-08T11:31:55.389Z,6.40
2023-08-08T11:35:57.698Z,7.15
2023-08-08T11:39:59.813Z,6.97
2023-08-08T11:44:03.034Z,7.37
2023-08-08T11:48:05.235Z,10.35
2023-08-08T11:52:08.506Z,5.57
2023-08-08T11:56:10.231Z,5.32
2023-08-08T12:00:15.816Z,5.93
2023-08-08T12:04:21.160Z,6.60
2023-08-08T12:08:24.801Z,6.03
2023-08-08T12:12:28.189Z,7.95
2023-08-08T12:16:34.698Z,6.47
2023-08-08T12:20:36.705Z,12.85
2023-08-08T12:24:38.543Z,5.87
2023-08-08T12:28:40.780Z,8.73
2023-08-08T12:32:42.641Z,7.20
2023-08-08T12:36:44.338Z,7.32
2023-08-08T12:40:46.118Z,6.87
2023-08-08T12:44:48.018Z,5.47
2023-08-08T12:48:49.855Z,5.62
2023-08-08T12:52:51.694Z,5.55
2023-08-08T12:56:53.341Z,4.55
2023-08-08T13:00:55.134Z,5.45
2023-08-08T13:04:56.964Z,5.03
2023-08-08T13:08:58.684Z,4.53
2023-08-08T13:13:00.363Z,3.92
2023-08-08T13:17:02.690Z,7.55
2023-08-08T13:21:06.299Z,7.32
2023-08-08T13:25:08.880Z,8.32
2023-08-08T13:29:13.150Z,6.05
2023-08-08T13:33:14.903Z,4.07
2023-08-08T13:37:17.067Z,4.37
2023-08-08T13:41:18.736Z,7.47
2023-08-08T13:45:21.890Z,4.65
2023-08-08T13:49:27.164Z,3.45
2023-08-08T13:53:29.592Z,3.85
2023-08-08T13:57:31.284Z,6.95
2023-08-08T14:01:33.040Z,4.03
2023-08-08T14:05:34.876Z,7.15
2023-08-08T14:09:36.662Z,7.57
2023-08-08T14:13:39.433Z,6.07
2023-08-08T14:17:41.205Z,9.60
2023-08-08T14:21:42.881Z,8.63
2023-08-08T14:25:44.553Z,6.12
2023-08-08T14:29:46.264Z,6.53
2023-08-08T14:33:48.273Z,4.55
2023-08-08T14:37:50.129Z,5.15
2023-08-08T14:41:51.940Z,3.42
2023-08-08T14:45:53.732Z,6.18
2023-08-08T14:49:55.558Z,6.90
2023-08-08T14:53:57.270Z,5.40
2023-08-08T14:57:58.943Z,3.55
2023-08-08T15:02:00.991Z,2.65
2023-08-08T15:06:02.723Z,3.55
2023-08-08T15:10:04.726Z,5.28
2023-08-08T15:14:06.466Z,2.25
2023-08-08T15:18:08.262Z,4.10
2023-08-08T15:22:09.993Z,3.80
2023-08-08T15:26:11.762Z,3.20
2023-08-08T15:30:13.483Z,1.62
2023-08-08T15:34:15.144Z,2.95
2023-08-08T15:38:16.930Z,2.22
2023-08-08T15:42:18.906Z,6.22
2023-08-08T15:46:20.680Z,13.57
2023-08-08T15:50:22.428Z,3.90
2023-08-08T15:54:24.903Z,3.20
2023-08-08T15:58:27.188Z,5.97
2023-08-08T16:02:28.921Z,2.83
2023-08-08T16:06:30.758Z,4.80
2023-08-08T16:10:32.607Z,2.83
2023-08-08T16:14:34.286Z,2.97
2023-08-08T16:18:35.944Z,4.57
2023-08-08T16:22:37.623Z,5.10
2023-08-08T16:26:39.260Z,5.53
2023-08-08T16:30:41.099Z,3.33
2023-08-08T16:34:42.893Z,3.62
2023-08-08T16:38:44.606Z,5.53
2023-08-08T16:42:46.283Z,4.47
2023-08-08T16:46:47.997Z,4.55
2023-08-08T16:50:50.880Z,4.37
2023-08-08T16:54:54.503Z,3.42
2023-08-08T16:58:56.630Z,2.08
2023-08-08T17:02:58.818Z,4.00
2023-08-08T17:07:00.611Z,5.30
2023-08-08T17:11:02.452Z,4.45
2023-08-08T17:15:04.884Z,2.95
2023-08-08T17:19:07.661Z,2.78
2023-08-08T17:23:09.786Z,2.62
2023-08-08T17:27:11.893Z,6.00
2023-08-08T17:31:13.623Z,4.45
2023-08-08T17:35:15.397Z,2.80
2023-08-08T17:39:17.244Z,4.60
2023-08-08T17:43:18.976Z,4.93
2023-08-08T17:47:20.764Z,4.40
2023-08-08T17:51:22.447Z,5.47
2023-08-08T17:55:24.787Z,4.50
2023-08-08T17:59:29.829Z,5.62
2023-08-08T18:03:32.963Z,3.75
2023-08-08T18:07:34.822Z,6.15
2023-08-08T18:11:39.387Z,5.07
2023-08-08T18:15:41.177Z,2.90
2023-08-08T18:19:42.850Z,4.97
2023-08-08T18:23:44.545Z,9.38
2023-08-08T18:27:46.444Z,3.58
2023-08-08T18:31:48.185Z,4.10
2023-08-08T18:35:49.863Z,5.78
2023-08-08T18:39:51.667Z,4.72
2023-08-08T18:43:53.475Z,4.37
2023-08-08T18:47:55.210Z,4.95
2023-08-08T18:51:57.065Z,5.07
2023-08-08T18:55:58.870Z,6.30
2023-08-08T19:00:00.866Z,5.03
2023-08-08T19:04:02.882Z,4.07
2023-08-08T19:08:04.916Z,5.47
2023-08-08T19:12:06.740Z,4.47
2023-08-08T19:16:08.493Z,5.18
2023-08-08T19:20:10.479Z,4.20
2023-08-08T19:24:12.207Z,4.87
2023-08-08T19:28:13.939Z,4.30
2023-08-08T19:32:15.744Z,4.68
2023-08-08T19:36:17.476Z,6.12
2023-08-08T19:40:20.070Z,6.37
2023-08-08T19:44:21.940Z,6.75
2023-08-08T19:48:23.661Z,6.47
2023-08-08T19:52:25.440Z,5.90
2023-08-08T19:56:27.590Z,5.28
2023-08-08T20:00:29.753Z,6.20
2023-08-08T20:04:31.658Z,7.12
2023-08-08T20:08:33.776Z,5.57
2023-08-08T20:12:35.521Z,7.25
2023-08-08T20:16:37.753Z,5.15
2023-08-08T20:20:39.682Z,7.50
2023-08-08T20:24:41.381Z,6.78
2023-08-08T20:28:43.170Z,6.28
2023-08-08T20:32:46.006Z,6.40
2023-08-08T20:36:47.767Z,5.35
2023-08-08T20:40:51.660Z,6.60
2023-08-08T20:44:53.447Z,7.47
2023-08-08T20:48:56.665Z,7.68
2023-08-08T20:52:59.224Z,5.60
2023-08-08T20:57:01.272Z,7.05
2023-08-08T21:01:03.233Z,5.93
2023-08-08T21:05:06.168Z,6.00
2023-08-08T21:09:08.230Z,6.40
2023-08-08T21:13:09.955Z,6.03
2023-08-08T21:17:11.681Z,8.15
2023-08-08T21:21:13.882Z,7.18
2023-08-08T21:25:15.833Z,6.68
2023-08-08T21:29:17.576Z,7.07
2023-08-08T21:33:19.266Z,4.12
2023-08-08T21:37:20.931Z,5.93
2023-08-08T21:41:22.601Z,3.58
2023-08-08T21:45:24.609Z,4.22
2023-08-08T21:49:26.309Z,4.45
2023-08-08T21:53:28.095Z,4.35
2023-08-08T21:57:29.885Z,3.92
2023-08-08T22:01:31.647Z,4.53
2023-08-08T22:05:33.397Z,3.72
2023-08-08T22:09:35.203Z,2.87
2023-08-08T22:13:37.050Z,3.45
2023-08-08T22:17:39.462Z,3.58
2023-08-08T22:21:42.152Z,3.67
2023-08-08T22:25:43.896Z,3.70
2023-08-08T22:29:45.557Z,3.03
2023-08-08T22:33:47.270Z,4.50
2023-08-08T22:37:49.062Z,4.25
2023-08-08T22:41:50.773Z,7.47
2023-08-08T22:45:52.495Z,5.00
2023-08-08T22:49:54.198Z,4.30
2023-08-08T22:53:55.943Z,4.47
2023-08-08T22:57:57.684Z,5.03
2023-08-08T23:02:01.068Z,2.95
2023-08-08T23:06:03.060Z,4.30
2023-08-08T23:10:05.275Z,4.90
2023-08-08T23:14:06.991Z,5.80
2023-08-08T23:18:08.747Z,4.75
2023-08-08T23:22:10.538Z,5.30
2023-08-08T23:26:12.759Z,6.37
2023-08-08T23:30:14.508Z,6.80
2023-08-08T23:34:16.182Z,9.57
2023-08-08T23:38:17.910Z,7.47
2023-08-08T23:42:20.202Z,7.55
2023-08-08T23:46:22.013Z,6.78
2023-08-08T23:50:23.793Z,8.00
2023-08-08T23:54:25.495Z,8.93
2023-08-08T23:58:27.808Z,8.90
